createdAt,value
2023-05-08T00:00:26.391Z,0.03
2023-05-08T00:01:52.994Z,0.00
2023-05-08T00:03:00.984Z,0.04
2023-05-08T00:04:09.309Z,0.02
2023-05-08T00:05:16.887Z,0.01
2023-05-08T00:06:25.067Z,0.01
2023-05-08T00:07:33.514Z,0.00
2023-05-08T00:08:41.298Z,0.00
2023-05-08T00:09:48.171Z,0.00
2023-05-08T00:10:54.940Z,0.00
2023-05-08T00:12:02.508Z,0.01
2023-05-08T00:13:09.787Z,0.01
2023-05-08T00:14:16.615Z,0.00
2023-05-08T00:15:23.973Z,0.02
2023-05-08T00:16:32.123Z,0.00
2023-05-08T00:17:40.286Z,0.00
2023-05-08T00:18:47.150Z,0.00
2023-05-08T00:19:54.314Z,0.01
2023-05-08T00:21:02.076Z,0.01
2023-05-08T00:22:09.289Z,0.00
2023-05-08T00:23:15.938Z,0.01
2023-05-08T00:24:24.420Z,0.02
2023-05-08T00:25:33.843Z,0.02
2023-05-08T00:26:43.309Z,0.00
2023-05-08T00:27:49.592Z,0.01
2023-05-08T00:28:57.197Z,0.00
2023-05-08T00:30:04.422Z,0.00
2023-05-08T00:31:11.796Z,0.00
2023-05-08T00:32:20.492Z,0.02
2023-05-08T00:33:28.248Z,0.00
2023-05-08T00:34:35.360Z,0.01
2023-05-08T00:35:45.440Z,0.01
2023-05-08T00:36:52.890Z,0.03
2023-05-08T00:38:01.400Z,0.00
2023-05-08T00:39:09.122Z,0.00
2023-05-08T00:40:16.614Z,0.00
2023-05-08T00:41:25.065Z,0.02
2023-05-08T00:42:32.743Z,0.00
2023-05-08T00:43:41.191Z,0.01
2023-05-08T00:44:48.113Z,0.01
2023-05-08T00:45:56.826Z,0.01
2023-05-08T00:47:04.746Z,0.03
2023-05-08T00:48:12.840Z,0.00
2023-05-08T00:49:20.554Z,0.02
2023-05-08T00:50:28.909Z,0.00
2023-05-08T00:51:37.132Z,0.00
2023-05-08T00:52:45.226Z,0.04
2023-05-08T00:53:52.641Z,0.00
2023-05-08T00:55:01.754Z,0.03
2023-05-08T00:56:09.177Z,0.02
2023-05-08T00:57:18.179Z,0.02
2023-05-08T00:58:25.115Z,0.02
2023-05-08T00:59:34.500Z,0.01
2023-05-08T01:00:43.981Z,0.01
2023-05-08T01:01:52.009Z,0.00
2023-05-08T01:02:59.518Z,0.00
2023-05-08T01:04:08.149Z,0.00
2023-05-08T01:05:16.389Z,0.00
2023-05-08T01:06:24.405Z,0.00
2023-05-08T01:07:32.348Z,0.00
2023-05-08T01:08:39.997Z,0.00
2023-05-08T01:09:47.312Z,0.02
2023-05-08T01:11:26.133Z,0.02
2023-05-08T01:13:04.215Z,0.00
2023-05-08T01:14:32.256Z,0.03
2023-05-08T01:15:45.542Z,0.01
2023-05-08T01:17:35.543Z,0.02
2023-05-08T01:18:48.103Z,0.00
2023-05-08T01:20:34.178Z,0.00
2023-05-08T01:21:52.751Z,0.01
2023-05-08T01:23:38.399Z,0.01
2023-05-08T01:25:17.712Z,0.02
2023-05-08T01:27:04.312Z,0.01
2023-05-08T01:28:52.078Z,0.01
2023-05-08T01:30:30.705Z,0.00
2023-05-08T01:32:05.790Z,0.04
2023-05-08T01:33:19.975Z,0.00
2023-05-08T01:34:29.138Z,0.04
2023-05-08T01:35:45.416Z,0.02
2023-05-08T01:37:00.702Z,0.02
2023-05-08T01:38:34.183Z,0.00
2023-05-08T01:40:00.808Z,0.00
2023-05-08T01:41:26.136Z,0.00
2023-05-08T01:43:06.268Z,0.04
2023-05-08T01:44:15.184Z,0.01
2023-05-08T01:45:29.908Z,0.00
2023-05-08T01:46:37.298Z,0.00
2023-05-08T01:47:44.197Z,0.00
2023-05-08T01:49:02.054Z,0.01
2023-05-08T01:50:24.870Z,0.04
2023-05-08T01:51:35.215Z,0.05
2023-05-08T01:52:48.301Z,0.05
2023-05-08T01:54:02.376Z,0.00
2023-05-08T01:55:14.802Z,0.02
2023-05-08T01:56:23.690Z,0.02
2023-05-08T01:57:33.259Z,0.02
2023-05-08T01:58:40.522Z,0.02
2023-05-08T01:59:50.416Z,0.02
2023-05-08T02:01:00.549Z,0.00
2023-05-08T02:02:08.180Z,0.00
2023-05-08T02:03:17.524Z,0.00
2023-05-08T02:04:25.519Z,0.00
2023-05-08T02:05:33.940Z,0.00
2023-05-08T02:06:42.411Z,0.00
2023-05-08T02:07:49.572Z,0.00
2023-05-08T02:08:58.727Z,0.00
2023-05-08T02:10:07.879Z,0.00
2023-05-08T02:11:15.428Z,0.02
2023-05-08T02:12:24.566Z,0.03
2023-05-08T02:13:35.155Z,0.00
2023-05-08T02:14:44.395Z,0.00
2023-05-08T02:15:54.464Z,0.01
2023-05-08T02:17:04.387Z,0.02
2023-05-08T02:18:13.281Z,0.01
2023-05-08T02:19:20.969Z,0.00
2023-05-08T02:20:28.645Z,0.00
2023-05-08T02:21:37.479Z,0.01
2023-05-08T02:22:49.139Z,0.01
2023-05-08T02:23:58.884Z,0.00
2023-05-08T02:25:08.288Z,0.00
2023-05-08T02:26:16.933Z,0.00
2023-05-08T02:27:25.415Z,0.00
2023-05-08T02:28:33.429Z,0.00
2023-05-08T02:29:41.749Z,0.00
2023-05-08T02:30:54.846Z,0.01
2023-05-08T02:32:04.992Z,0.01
2023-05-08T02:33:14.219Z,0.01
2023-05-08T02:34:23.146Z,0.00
2023-05-08T02:35:33.910Z,0.00
2023-05-08T02:36:42.288Z,0.00
2023-05-08T02:37:54.138Z,0.00
2023-05-08T02:39:01.878Z,0.00
2023-05-08T02:40:12.631Z,0.01
2023-05-08T02:41:22.476Z,0.01
2023-05-08T02:42:31.157Z,0.00
2023-05-08T02:43:42.102Z,0.00
2023-05-08T02:44:52.683Z,0.00
2023-05-08T02:46:15.570Z,0.01
2023-05-08T02:47:29.722Z,0.01
2023-05-08T02:48:41.296Z,0.01
2023-05-08T02:49:56.761Z,0.02
2023-05-08T02:51:23.519Z,0.02
2023-05-08T02:52:38.749Z,0.00
2023-05-08T02:54:09.806Z,0.00
2023-05-08T02:55:31.968Z,0.00
2023-05-08T02:56:47.012Z,0.00
2023-05-08T02:58:25.238Z,0.01
2023-05-08T02:59:41.196Z,0.01
2023-05-08T03:00:54.731Z,0.00
2023-05-08T03:02:29.872Z,0.00
2023-05-08T03:03:44.050Z,0.00
2023-05-08T03:04:55.765Z,0.01
2023-05-08T03:06:05.550Z,0.02
2023-05-08T03:07:14.853Z,0.02
2023-05-08T03:08:40.409Z,0.02
2023-05-08T03:09:50.280Z,0.02
2023-05-08T03:10:59.941Z,0.00
2023-05-08T03:12:12.009Z,0.00
2023-05-08T03:13:20.740Z,0.01
2023-05-08T03:14:30.170Z,0.01
2023-05-08T03:15:43.319Z,0.00
2023-05-08T03:16:53.311Z,0.01
2023-05-08T03:18:05.215Z,0.00
2023-05-08T03:19:23.254Z,0.02
2023-05-08T03:20:34.633Z,0.00
2023-05-08T03:21:44.390Z,0.00
2023-05-08T03:22:52.681Z,0.00
2023-05-08T03:24:02.269Z,0.00
2023-05-08T03:25:11.608Z,0.01
2023-05-08T03:26:22.387Z,0.01
2023-05-08T03:27:32.376Z,0.01
2023-05-08T03:28:39.486Z,0.04
2023-05-08T03:29:47.791Z,0.02
2023-05-08T03:30:56.223Z,0.00
2023-05-08T03:32:03.961Z,0.00
2023-05-08T03:33:11.725Z,0.01
2023-05-08T03:34:20.565Z,0.01
2023-05-08T03:35:28.808Z,0.00
2023-05-08T03:36:36.970Z,0.00
2023-05-08T03:37:44.529Z,0.03
2023-05-08T03:38:52.631Z,0.00
2023-05-08T03:40:01.485Z,0.00
2023-05-08T03:41:09.662Z,0.00
2023-05-08T03:42:23.285Z,0.00
2023-05-08T03:43:32.512Z,0.00
2023-05-08T03:44:40.673Z,0.00
2023-05-08T03:45:47.698Z,0.00
2023-05-08T03:46:57.623Z,0.00
2023-05-08T03:48:06.812Z,0.00
2023-05-08T03:49:15.267Z,0.02
2023-05-08T03:50:23.108Z,0.00
2023-05-08T03:51:30.582Z,0.00
2023-05-08T03:52:38.799Z,0.00
2023-05-08T03:53:46.501Z,0.03
2023-05-08T03:54:54.116Z,0.00
2023-05-08T03:56:03.573Z,0.00
2023-05-08T03:57:12.711Z,0.00
2023-05-08T03:59:01.526Z,0.00
2023-05-08T04:00:11.488Z,0.00
2023-05-08T04:01:55.017Z,0.00
2023-05-08T04:03:25.056Z,0.00
2023-05-08T04:04:44.744Z,0.02
2023-05-08T04:06:15.269Z,0.00
2023-05-08T04:07:34.438Z,0.01
2023-05-08T04:08:57.700Z,0.03
2023-05-08T04:10:18.183Z,0.02
2023-05-08T04:12:05.091Z,0.02
2023-05-08T04:13:17.948Z,0.01
2023-05-08T04:14:28.274Z,0.01
2023-05-08T04:15:40.688Z,0.00
2023-05-08T04:16:51.856Z,0.00
2023-05-08T04:18:01.911Z,0.00
2023-05-08T04:19:14.938Z,0.00
2023-05-08T04:20:23.855Z,0.00
2023-05-08T04:21:33.513Z,0.01
2023-05-08T04:22:42.335Z,0.00
2023-05-08T04:23:50.121Z,0.00
2023-05-08T04:24:56.948Z,0.00
2023-05-08T04:26:05.433Z,0.01
2023-05-08T04:27:13.382Z,0.02
2023-05-08T04:28:20.561Z,0.01
2023-05-08T04:29:27.740Z,0.00
2023-05-08T04:30:35.247Z,0.00
2023-05-08T04:31:42.533Z,0.00
2023-05-08T04:32:49.704Z,0.00
2023-05-08T04:33:57.046Z,0.01
2023-05-08T04:35:04.937Z,0.00
2023-05-08T04:36:18.417Z,0.00
2023-05-08T04:37:29.809Z,0.00
2023-05-08T04:38:41.308Z,0.00
2023-05-08T04:39:52.063Z,0.00
2023-05-08T04:40:59.282Z,0.00
2023-05-08T04:42:09.651Z,0.00
2023-05-08T04:43:16.659Z,0.00
2023-05-08T04:44:24.132Z,0.00
2023-05-08T04:45:31.141Z,0.00
2023-05-08T04:46:37.859Z,0.00
2023-05-08T04:47:44.780Z,0.00
2023-05-08T04:48:51.650Z,0.00
2023-05-08T04:50:00.035Z,0.00
2023-05-08T04:51:08.998Z,0.00
2023-05-08T04:52:16.476Z,0.00
2023-05-08T04:53:23.332Z,0.02
2023-05-08T04:54:30.528Z,0.02
2023-05-08T04:55:37.431Z,0.00
2023-05-08T04:56:45.647Z,0.00
2023-05-08T04:57:52.912Z,0.00
2023-05-08T04:58:59.888Z,0.00
2023-05-08T05:00:07.601Z,0.00
2023-05-08T05:01:17.835Z,0.00
2023-05-08T05:02:25.029Z,0.00
2023-05-08T05:03:32.408Z,0.00
2023-05-08T05:04:39.565Z,0.00
2023-05-08T05:05:46.562Z,0.01
2023-05-08T05:06:53.320Z,0.01
2023-05-08T05:08:00.151Z,0.00
2023-05-08T05:09:06.813Z,0.00
2023-05-08T05:10:13.639Z,0.00
2023-05-08T05:11:24.899Z,0.01
2023-05-08T05:12:35.580Z,0.01
2023-05-08T05:13:43.197Z,0.00
2023-05-08T05:14:50.266Z,0.00
2023-05-08T05:15:57.588Z,0.00
2023-05-08T05:17:04.280Z,0.00
2023-05-08T05:18:11.188Z,0.00
2023-05-08T05:19:18.350Z,0.00
2023-05-08T05:20:26.102Z,0.00
2023-05-08T05:21:33.340Z,0.00
2023-05-08T05:22:40.724Z,0.01
2023-05-08T05:23:48.150Z,0.00
2023-05-08T05:24:55.486Z,0.00
2023-05-08T05:26:02.430Z,0.00
2023-05-08T05:27:10.240Z,0.00
2023-05-08T05:28:17.939Z,0.01
2023-05-08T05:29:25.445Z,0.00
2023-05-08T05:30:34.406Z,0.00
2023-05-08T05:31:42.210Z,0.00
2023-05-08T05:32:49.085Z,0.00
2023-05-08T05:33:56.746Z,0.00
2023-05-08T05:35:03.951Z,0.00
2023-05-08T05:36:11.357Z,0.00
2023-05-08T05:37:21.636Z,0.00
2023-05-08T05:38:30.078Z,0.00
2023-05-08T05:39:39.317Z,0.00
2023-05-08T05:40:46.598Z,0.00
2023-05-08T05:41:53.505Z,0.00
2023-05-08T05:43:00.982Z,0.00
2023-05-08T05:44:08.021Z,0.00
2023-05-08T05:45:16.046Z,0.00
2023-05-08T05:46:22.959Z,0.00
2023-05-08T05:47:30.159Z,0.00
2023-05-08T05:48:37.595Z,0.00
2023-05-08T05:49:49.055Z,0.00
2023-05-08T05:50:55.857Z,0.00
2023-05-08T05:52:05.444Z,0.00
2023-05-08T05:53:16.366Z,0.00
2023-05-08T05:54:23.480Z,0.00
2023-05-08T05:55:31.068Z,0.00
2023-05-08T05:56:38.816Z,0.00
2023-05-08T05:57:46.493Z,0.00
2023-05-08T05:58:53.319Z,0.00
2023-05-08T06:00:01.206Z,0.00
2023-05-08T06:01:09.435Z,0.00
2023-05-08T06:02:20.502Z,0.00
2023-05-08T06:03:30.035Z,0.00
2023-05-08T06:04:38.628Z,0.00
2023-05-08T06:05:49.058Z,0.01
2023-05-08T06:06:57.011Z,0.01
2023-05-08T06:08:04.800Z,0.01
2023-05-08T06:09:12.571Z,0.00
2023-05-08T06:10:20.353Z,0.00
2023-05-08T06:11:28.819Z,0.00
2023-05-08T06:12:38.305Z,0.00
2023-05-08T06:13:47.272Z,0.00
2023-05-08T06:14:57.170Z,0.00
2023-05-08T06:16:04.405Z,0.00
2023-05-08T06:17:13.580Z,0.00
2023-05-08T06:18:21.730Z,0.00
2023-05-08T06:19:30.083Z,0.00
2023-05-08T06:20:40.924Z,0.00
2023-05-08T06:21:49.024Z,0.00
2023-05-08T06:22:56.156Z,0.00
2023-05-08T06:24:05.111Z,0.00
2023-05-08T06:25:13.663Z,0.00
2023-05-08T06:26:22.759Z,0.00
2023-05-08T06:27:32.019Z,0.00
2023-05-08T06:28:39.528Z,0.00
2023-05-08T06:29:46.568Z,0.00
2023-05-08T06:30:53.742Z,0.00
2023-05-08T06:32:01.683Z,0.00
2023-05-08T06:33:10.315Z,0.00
2023-05-08T06:34:17.367Z,0.00
2023-05-08T06:35:24.495Z,0.00
2023-05-08T06:36:32.502Z,0.00
2023-05-08T06:37:40.113Z,0.00
2023-05-08T06:38:48.076Z,0.00
2023-05-08T06:40:10.175Z,0.00
2023-05-08T06:41:19.571Z,0.00
2023-05-08T06:42:28.065Z,0.02
2023-05-08T06:43:34.948Z,0.00
2023-05-08T06:44:43.412Z,0.00
2023-05-08T06:45:50.501Z,0.00
2023-05-08T06:46:57.861Z,0.00
2023-05-08T06:48:05.357Z,0.00
2023-05-08T06:49:13.317Z,0.00
2023-05-08T06:50:20.338Z,0.00
2023-05-08T06:51:28.189Z,0.00
2023-05-08T06:52:36.992Z,0.00
2023-05-08T06:53:44.502Z,0.00
2023-05-08T06:54:51.843Z,0.02
2023-05-08T06:56:00.726Z,0.02
2023-05-08T06:57:08.037Z,0.00
2023-05-08T06:58:17.508Z,0.00
2023-05-08T06:59:26.250Z,0.00
2023-05-08T07:00:33.085Z,0.00
2023-05-08T07:01:40.132Z,0.00
2023-05-08T07:02:47.985Z,0.00
2023-05-08T07:03:55.696Z,0.00
2023-05-08T07:05:03.526Z,0.00
2023-05-08T07:06:12.029Z,0.00
2023-05-08T07:07:20.106Z,0.00
2023-05-08T07:08:28.259Z,0.00
2023-05-08T07:09:36.114Z,0.00
2023-05-08T07:10:43.293Z,0.00
2023-05-08T07:11:50.424Z,0.00
2023-05-08T07:12:57.481Z,0.00
2023-05-08T07:14:05.229Z,0.00
2023-05-08T07:15:24.614Z,0.00
2023-05-08T07:16:35.794Z,0.00
2023-05-08T07:17:43.759Z,0.00
2023-05-08T07:18:50.917Z,0.00
2023-05-08T07:19:58.207Z,0.00
2023-05-08T07:21:05.093Z,0.00
2023-05-08T07:22:14.195Z,0.00
2023-05-08T07:23:21.619Z,0.00
2023-05-08T07:24:29.158Z,0.00
2023-05-08T07:25:37.314Z,0.00
2023-05-08T07:26:45.485Z,0.00
2023-05-08T07:27:53.869Z,0.00
2023-05-08T07:29:01.234Z,0.00
2023-05-08T07:30:09.940Z,0.00
2023-05-08T07:31:17.376Z,0.00
2023-05-08T07:32:24.736Z,0.00
2023-05-08T07:33:32.607Z,0.00
2023-05-08T07:34:41.022Z,0.00
2023-05-08T07:35:48.381Z,0.00
2023-05-08T07:36:55.412Z,0.00
2023-05-08T07:38:03.416Z,0.00
2023-05-08T07:39:11.290Z,0.00
2023-05-08T07:40:18.618Z,0.00
2023-05-08T07:41:28.584Z,0.00
2023-05-08T07:42:43.220Z,0.00
2023-05-08T07:43:50.404Z,0.01
2023-05-08T07:44:57.622Z,0.00
2023-05-08T07:46:05.365Z,0.00
2023-05-08T07:47:13.610Z,0.00
2023-05-08T07:48:22.341Z,0.00
2023-05-08T07:49:30.489Z,0.00
2023-05-08T07:50:39.278Z,0.00
2023-05-08T07:51:47.134Z,0.00
2023-05-08T07:52:53.867Z,0.00
2023-05-08T07:54:01.286Z,0.00
2023-05-08T07:55:09.077Z,0.00
2023-05-08T07:56:15.552Z,0.00
2023-05-08T07:57:22.389Z,0.01
2023-05-08T07:58:31.848Z,0.00
2023-05-08T07:59:39.113Z,0.00
2023-05-08T08:00:46.973Z,0.00
2023-05-08T08:01:54.723Z,0.00
2023-05-08T08:03:03.464Z,0.00
2023-05-08T08:04:13.454Z,0.00
2023-05-08T08:05:23.191Z,0.00
2023-05-08T08:06:31.082Z,0.00
2023-05-08T08:07:39.267Z,0.00
2023-05-08T08:08:46.732Z,0.00
2023-05-08T08:09:53.609Z,0.00
2023-05-08T08:11:03.700Z,0.00
2023-05-08T08:12:11.242Z,0.00
2023-05-08T08:13:19.247Z,0.00
2023-05-08T08:14:27.506Z,0.00
2023-05-08T08:15:35.113Z,0.00
2023-05-08T08:16:44.677Z,0.00
2023-05-08T08:17:52.064Z,0.00
2023-05-08T08:19:02.548Z,0.00
2023-05-08T08:20:10.925Z,0.00
2023-05-08T08:21:18.492Z,0.00
2023-05-08T08:22:28.184Z,0.00
2023-05-08T08:23:37.073Z,0.00
2023-05-08T08:24:44.623Z,0.00
2023-05-08T08:25:52.090Z,0.00
2023-05-08T08:26:59.478Z,0.00
2023-05-08T08:28:07.005Z,0.00
2023-05-08T08:29:14.939Z,0.00
2023-05-08T08:30:22.865Z,0.00
2023-05-08T08:31:30.702Z,0.00
2023-05-08T08:32:39.067Z,0.00
2023-05-08T08:33:46.890Z,0.00
2023-05-08T08:34:53.540Z,0.00
2023-05-08T08:36:00.743Z,0.00
2023-05-08T08:37:14.623Z,0.00
2023-05-08T08:38:21.265Z,0.00
2023-05-08T08:39:28.458Z,0.00
2023-05-08T08:40:40.538Z,0.00
2023-05-08T08:41:48.328Z,0.00
2023-05-08T08:42:56.827Z,0.00
2023-05-08T08:44:05.025Z,0.00
2023-05-08T08:45:13.698Z,0.00
2023-05-08T08:46:22.348Z,0.00
2023-05-08T08:47:40.077Z,0.00
2023-05-08T08:48:48.320Z,0.00
2023-05-08T08:49:56.802Z,0.00
2023-05-08T08:51:05.449Z,0.00
2023-05-08T08:52:41.741Z,0.00
2023-05-08T08:53:49.242Z,0.00
2023-05-08T08:54:57.136Z,0.00
2023-05-08T08:56:05.239Z,0.00
2023-05-08T08:57:14.809Z,0.00
2023-05-08T08:58:48.691Z,0.00
2023-05-08T08:59:55.981Z,0.00
2023-05-08T09:01:05.261Z,0.00
2023-05-08T09:02:14.225Z,0.00
2023-05-08T09:03:21.937Z,0.00
2023-05-08T09:04:31.269Z,0.00
2023-05-08T09:05:39.653Z,0.00
2023-05-08T09:06:47.388Z,0.00
2023-05-08T09:07:58.453Z,0.00
2023-05-08T09:09:06.009Z,0.00
2023-05-08T09:10:16.518Z,0.00
2023-05-08T09:11:23.259Z,0.00
2023-05-08T09:12:30.420Z,0.00
2023-05-08T09:13:37.704Z,0.00
2023-05-08T09:14:45.923Z,0.00
2023-05-08T09:15:52.777Z,0.00
2023-05-08T09:17:01.315Z,0.00
2023-05-08T09:18:09.447Z,0.00
2023-05-08T09:19:18.148Z,0.00
2023-05-08T09:20:26.072Z,0.00
2023-05-08T09:21:35.124Z,0.00
2023-05-08T09:22:43.271Z,0.00
2023-05-08T09:23:58.815Z,0.00
2023-05-08T09:25:06.710Z,0.00
2023-05-08T09:26:15.093Z,0.00
2023-05-08T09:27:27.150Z,0.00
2023-05-08T09:28:35.002Z,0.00
2023-05-08T09:29:43.158Z,0.00
2023-05-08T09:31:01.206Z,0.00
2023-05-08T09:32:09.854Z,0.00
2023-05-08T09:33:17.816Z,0.00
2023-05-08T09:34:31.425Z,0.00
2023-05-08T09:35:39.524Z,0.00
2023-05-08T09:36:46.634Z,0.00
2023-05-08T09:37:54.269Z,0.00
2023-05-08T09:39:04.033Z,0.00
2023-05-08T09:40:20.986Z,0.00
2023-05-08T09:41:28.416Z,0.00
2023-05-08T09:42:40.802Z,0.00
2023-05-08T09:44:02.922Z,0.00
2023-05-08T09:45:11.630Z,0.00
2023-05-08T09:46:24.519Z,0.00
2023-05-08T09:47:31.517Z,0.00
2023-05-08T09:48:41.202Z,0.00
2023-05-08T09:50:12.106Z,0.00
2023-05-08T09:51:20.312Z,0.00
2023-05-08T09:52:29.137Z,0.00
2023-05-08T09:53:36.052Z,0.00
2023-05-08T09:54:45.865Z,0.00
2023-05-08T09:55:52.691Z,0.00
2023-05-08T09:57:00.262Z,0.00
2023-05-08T09:58:07.726Z,0.00
2023-05-08T09:59:28.531Z,0.00
2023-05-08T10:00:35.764Z,0.00
2023-05-08T10:01:42.848Z,0.00
2023-05-08T10:03:04.410Z,0.00
2023-05-08T10:04:11.375Z,0.00
2023-05-08T10:05:32.762Z,0.00
2023-05-08T10:06:40.332Z,0.00
2023-05-08T10:07:48.001Z,0.00
2023-05-08T10:09:15.774Z,0.00
2023-05-08T10:10:30.365Z,0.00
2023-05-08T10:11:37.911Z,0.00
2023-05-08T10:12:45.601Z,0.00
2023-05-08T10:13:52.138Z,0.00
2023-05-08T10:14:59.632Z,0.00
2023-05-08T10:16:06.511Z,0.00
2023-05-08T10:17:13.525Z,0.00
2023-05-08T10:18:24.841Z,0.00
2023-05-08T10:19:32.983Z,0.00
2023-05-08T10:20:41.634Z,0.00
2023-05-08T10:21:51.059Z,0.00
2023-05-08T10:22:59.702Z,0.00
2023-05-08T10:24:12.414Z,0.00
2023-05-08T10:25:20.507Z,0.00
2023-05-08T10:26:31.805Z,0.00
2023-05-08T10:27:52.295Z,0.00
2023-05-08T10:29:01.248Z,0.00
2023-05-08T10:30:09.721Z,0.00
2023-05-08T10:31:18.371Z,0.00
2023-05-08T10:32:25.804Z,0.00
2023-05-08T10:33:37.727Z,0.00
2023-05-08T10:34:44.865Z,0.00
2023-05-08T10:35:52.166Z,0.00
2023-05-08T10:36:59.562Z,0.00
2023-05-08T10:38:06.861Z,0.00
2023-05-08T10:39:14.981Z,0.00
2023-05-08T10:40:22.683Z,0.00
2023-05-08T10:41:31.311Z,0.00
2023-05-08T10:42:38.577Z,0.00
2023-05-08T10:43:46.688Z,0.00
2023-05-08T10:44:53.575Z,0.00
2023-05-08T10:46:01.223Z,0.00
2023-05-08T10:47:39.202Z,0.00
2023-05-08T10:49:26.516Z,0.00
2023-05-08T10:51:03.609Z,0.00
2023-05-08T10:52:36.649Z,0.00
2023-05-08T10:53:54.396Z,0.00
2023-05-08T10:55:31.491Z,0.00
2023-05-08T10:56:41.434Z,0.00
2023-05-08T10:58:11.815Z,0.00
2023-05-08T10:59:26.221Z,0.00
2023-05-08T11:01:12.582Z,0.00
2023-05-08T11:02:20.084Z,0.00
2023-05-08T11:03:31.208Z,0.00
2023-05-08T11:04:39.932Z,0.00
2023-05-08T11:05:51.704Z,0.00
2023-05-08T11:07:01.290Z,0.00
2023-05-08T11:08:15.855Z,0.00
2023-05-08T11:09:48.318Z,0.01
2023-05-08T11:11:07.499Z,0.00
2023-05-08T11:12:28.301Z,0.00
2023-05-08T11:13:57.259Z,0.00
2023-05-08T11:15:07.952Z,0.00
2023-05-08T11:16:14.972Z,0.00
2023-05-08T11:17:26.658Z,0.00
2023-05-08T11:18:48.668Z,0.00
2023-05-08T11:19:58.631Z,0.00
2023-05-08T11:21:08.707Z,0.00
2023-05-08T11:22:18.631Z,0.00
2023-05-08T11:23:34.643Z,0.00
2023-05-08T11:24:42.406Z,0.00
2023-05-08T11:25:50.344Z,0.00
2023-05-08T11:26:57.217Z,0.00
2023-05-08T11:28:12.092Z,0.00
2023-05-08T11:29:20.547Z,0.00
2023-05-08T11:30:37.984Z,0.00
2023-05-08T11:31:55.013Z,0.00
2023-05-08T11:33:18.643Z,0.00
2023-05-08T11:34:47.536Z,0.00
2023-05-08T11:36:02.471Z,0.00
2023-05-08T11:37:13.519Z,0.00
2023-05-08T11:38:37.750Z,0.00
2023-05-08T11:39:45.085Z,0.03
2023-05-08T11:41:10.658Z,0.03
2023-05-08T11:42:36.312Z,0.04
2023-05-08T11:44:12.558Z,0.09
2023-05-08T11:45:21.858Z,0.20
2023-05-08T11:46:44.969Z,0.13
2023-05-08T11:47:51.892Z,0.27
2023-05-08T11:49:03.038Z,0.18
2023-05-08T11:50:15.750Z,0.30
2023-05-08T11:51:23.481Z,0.29
2023-05-08T11:52:34.804Z,0.24
2023-05-08T11:53:42.891Z,0.27
2023-05-08T11:54:49.720Z,0.41
2023-05-08T11:55:57.357Z,0.44
2023-05-08T11:57:07.155Z,0.42
2023-05-08T11:58:15.544Z,0.46
2023-05-08T11:59:23.193Z,0.46
2023-05-08T12:00:30.339Z,0.58
2023-05-08T12:01:39.052Z,0.61
2023-05-08T12:02:49.877Z,0.75
2023-05-08T12:04:09.348Z,0.61
2023-05-08T12:05:17.848Z,0.70
2023-05-08T12:06:26.072Z,0.69
2023-05-08T12:07:33.976Z,0.78
2023-05-08T12:08:42.796Z,0.71
2023-05-08T12:09:49.919Z,0.77
2023-05-08T12:10:58.936Z,0.83
2023-05-08T12:12:06.269Z,0.84
2023-05-08T12:13:24.657Z,0.99
2023-05-08T12:14:32.865Z,0.96
2023-05-08T12:15:40.950Z,0.97
2023-05-08T12:16:48.885Z,1.00
2023-05-08T12:18:05.148Z,1.00
2023-05-08T12:19:15.424Z,1.04
2023-05-08T12:20:22.232Z,1.08
2023-05-08T12:21:29.010Z,1.09
2023-05-08T12:22:36.373Z,1.12
2023-05-08T12:23:43.084Z,1.15
2023-05-08T12:24:53.060Z,1.13
2023-05-08T12:26:03.253Z,1.12
2023-05-08T12:27:10.517Z,1.23
2023-05-08T12:28:17.654Z,1.22
2023-05-08T12:29:27.467Z,1.26
2023-05-08T12:30:35.267Z,1.23
2023-05-08T12:31:43.004Z,1.25
2023-05-08T12:32:50.007Z,1.33
2023-05-08T12:33:57.260Z,1.35
2023-05-08T12:35:04.686Z,1.34
2023-05-08T12:36:12.391Z,1.38
2023-05-08T12:37:28.312Z,1.34
2023-05-08T12:38:35.828Z,1.37
2023-05-08T12:39:45.985Z,1.34
2023-05-08T12:40:57.537Z,1.32
2023-05-08T12:42:07.728Z,1.38
2023-05-08T12:43:15.204Z,1.47
2023-05-08T12:44:26.532Z,1.49
2023-05-08T12:45:40.574Z,1.46
2023-05-08T12:46:52.872Z,1.46
2023-05-08T12:48:05.233Z,1.51
2023-05-08T12:49:14.188Z,1.62
2023-05-08T12:50:22.592Z,1.48
2023-05-08T12:51:33.459Z,1.54
2023-05-08T12:52:40.974Z,1.57
2023-05-08T12:53:49.062Z,1.55
2023-05-08T12:54:56.492Z,1.61
2023-05-08T12:56:04.647Z,1.66
2023-05-08T12:57:15.101Z,1.59
2023-05-08T12:58:26.049Z,1.68
2023-05-08T12:59:36.081Z,1.64
2023-05-08T13:00:51.715Z,1.67
2023-05-08T13:01:59.463Z,1.67
2023-05-08T13:03:07.751Z,1.63
2023-05-08T13:04:14.092Z,1.68
2023-05-08T13:05:24.920Z,1.72
2023-05-08T13:06:32.882Z,1.70
2023-05-08T13:07:39.957Z,1.65
2023-05-08T13:08:46.322Z,1.66
2023-05-08T13:10:06.735Z,1.72
2023-05-08T13:11:13.545Z,1.82
2023-05-08T13:12:23.871Z,1.78
2023-05-08T13:13:33.446Z,1.88
2023-05-08T13:14:40.337Z,1.77
2023-05-08T13:15:47.556Z,1.86
2023-05-08T13:16:54.527Z,1.93
2023-05-08T13:18:02.169Z,1.91
2023-05-08T13:19:08.962Z,1.79
2023-05-08T13:20:17.151Z,1.87
2023-05-08T13:21:25.097Z,1.96
2023-05-08T13:22:33.697Z,1.91
2023-05-08T13:23:42.129Z,1.93
2023-05-08T13:24:48.812Z,1.97
2023-05-08T13:25:56.055Z,2.03
2023-05-08T13:27:03.290Z,1.97
2023-05-08T13:28:11.136Z,2.08
2023-05-08T13:29:18.282Z,2.14
2023-05-08T13:30:25.280Z,2.01
2023-05-08T13:31:31.944Z,1.97
2023-05-08T13:32:39.328Z,2.07
2023-05-08T13:33:45.961Z,2.05
2023-05-08T13:34:55.260Z,2.09
2023-05-08T13:36:06.666Z,2.11
2023-05-08T13:37:13.616Z,2.12
2023-05-08T13:38:20.192Z,1.97
2023-05-08T13:39:27.131Z,2.14
2023-05-08T13:40:34.829Z,2.17
2023-05-08T13:41:45.092Z,2.00
2023-05-08T13:42:52.381Z,2.18
2023-05-08T13:44:00.346Z,2.18
2023-05-08T13:45:15.654Z,2.19
2023-05-08T13:46:22.363Z,2.17
2023-05-08T13:47:29.169Z,2.29
2023-05-08T13:48:36.131Z,2.18
2023-05-08T13:49:43.113Z,2.17
2023-05-08T13:50:49.974Z,2.30
2023-05-08T13:51:57.453Z,2.30
2023-05-08T13:53:04.141Z,2.30
2023-05-08T13:54:10.884Z,2.40
2023-05-08T13:55:19.853Z,2.35
2023-05-08T13:56:26.276Z,2.21
2023-05-08T13:57:33.516Z,2.30
2023-05-08T13:58:42.770Z,2.33
2023-05-08T13:59:50.175Z,2.28
2023-05-08T14:00:56.963Z,2.32
2023-05-08T14:02:06.903Z,2.23
2023-05-08T14:03:15.261Z,2.34
2023-05-08T14:04:23.510Z,2.32
2023-05-08T14:05:30.923Z,2.46
2023-05-08T14:06:38.384Z,2.26
2023-05-08T14:07:46.877Z,2.44
2023-05-08T14:08:56.959Z,2.33
2023-05-08T14:10:06.061Z,2.33
2023-05-08T14:11:15.549Z,2.29
2023-05-08T14:12:22.693Z,2.37
2023-05-08T14:13:29.998Z,2.25
2023-05-08T14:14:37.487Z,2.33
2023-05-08T14:15:45.909Z,2.43
2023-05-08T14:16:53.446Z,2.44
2023-05-08T14:18:01.271Z,2.38
2023-05-08T14:19:08.927Z,2.41
2023-05-08T14:20:17.254Z,2.56
2023-05-08T14:21:25.702Z,2.43
2023-05-08T14:22:32.812Z,2.50
2023-05-08T14:23:40.315Z,2.51
2023-05-08T14:24:47.410Z,2.40
2023-05-08T14:25:54.939Z,2.28
2023-05-08T14:27:07.160Z,2.34
2023-05-08T14:28:14.723Z,2.39
2023-05-08T14:29:23.483Z,2.57
2023-05-08T14:30:31.644Z,2.50
2023-05-08T14:31:40.157Z,2.50
2023-05-08T14:32:47.774Z,2.42
2023-05-08T14:33:54.770Z,2.42
2023-05-08T14:35:03.142Z,2.48
2023-05-08T14:36:12.128Z,2.42
2023-05-08T14:37:19.403Z,2.54
2023-05-08T14:38:26.276Z,2.45
2023-05-08T14:39:34.053Z,2.44
2023-05-08T14:40:41.901Z,2.50
2023-05-08T14:42:13.710Z,2.48
2023-05-08T14:43:16.572Z,2.54
2023-05-08T14:44:23.526Z,2.56
2023-05-08T14:45:30.169Z,2.45
2023-05-08T14:46:36.963Z,2.44
2023-05-08T14:47:44.247Z,2.58
2023-05-08T14:48:52.076Z,2.47
2023-05-08T14:49:59.408Z,2.48
2023-05-08T14:51:06.869Z,2.56
2023-05-08T14:52:13.970Z,2.44
2023-05-08T14:53:21.191Z,2.43
2023-05-08T14:54:28.905Z,2.39
2023-05-08T14:55:36.543Z,2.43
2023-05-08T14:56:47.524Z,2.59
2023-05-08T14:57:54.754Z,2.45
2023-05-08T14:59:01.947Z,2.64
2023-05-08T15:00:09.414Z,2.49
2023-05-08T15:01:15.996Z,2.62
2023-05-08T15:02:23.536Z,2.59
2023-05-08T15:03:31.510Z,2.45
2023-05-08T15:04:42.664Z,2.43
2023-05-08T15:05:49.231Z,2.51
2023-05-08T15:06:56.359Z,2.42
2023-05-08T15:08:04.316Z,2.63
2023-05-08T15:09:11.512Z,2.60
2023-05-08T15:10:19.664Z,2.57
2023-05-08T15:11:27.742Z,2.58
2023-05-08T15:12:35.076Z,2.65
2023-05-08T15:13:42.723Z,2.58
2023-05-08T15:14:50.928Z,2.44
2023-05-08T15:15:58.472Z,2.55
2023-05-08T15:17:05.649Z,2.62
2023-05-08T15:18:12.538Z,2.50
2023-05-08T15:19:20.378Z,2.55
2023-05-08T15:20:27.377Z,2.63
2023-05-08T15:21:35.406Z,2.59
2023-05-08T15:22:42.724Z,2.73
2023-05-08T15:23:49.725Z,2.55
2023-05-08T15:24:57.278Z,2.51
2023-05-08T15:26:05.490Z,2.66
2023-05-08T15:27:12.804Z,2.65
2023-05-08T15:28:21.336Z,2.68
2023-05-08T15:29:28.619Z,2.68
2023-05-08T15:30:35.979Z,2.62
2023-05-08T15:31:43.876Z,2.59
2023-05-08T15:32:51.937Z,2.53
2023-05-08T15:33:59.888Z,2.55
2023-05-08T15:35:07.875Z,2.59
2023-05-08T15:36:15.774Z,2.57
2023-05-08T15:37:22.691Z,2.67
2023-05-08T15:38:30.457Z,2.74